sensor_id;sensor_type;location;lat;lon;timestamp;P1;durP1;ratioP1;P2;durP2;ratioP2
35907;SDS011;22003;50.320;8.054;2022-08-25T04:01:52;4.63;;;3.47;;
35907;SDS011;22003;50.320;8.054;2022-08-25T04:04:17;5.72;;;4.00;;
35907;SDS011;22003;50.320;8.054;2022-08-25T04:06:44;4.72;;;3.75;;
35907;SDS011;22003;50.320;8.054;2022-08-25T04:09:09;6.75;;;3.70;;
35907;SDS011;22003;50.320;8.054;2022-08-25T04:11:36;4.50;;;4.10;;
35907;SDS011;22003;50.320;8.054;2022-08-25T04:14:02;5.45;;;4.05;;
35907;SDS011;22003;50.320;8.054;2022-08-25T04:16:30;4.55;;;4.07;;
35907;SDS011;22003;50.320;8.054;2022-08-25T04:18:58;7.07;;;4.45;;
35907;SDS011;22003;50.320;8.054;2022-08-25T04:21:25;5.70;;;3.92;;
35907;SDS011;22003;50.320;8.054;2022-08-25T04:23:51;6.63;;;3.70;;
35907;SDS011;22003;50.320;8.054;2022-08-25T04:26:19;7.90;;;5.30;;
35907;SDS011;22003;50.320;8.054;2022-08-25T04:28:47;5.68;;;4.18;;
35907;SDS011;22003;50.320;8.054;2022-08-25T04:31:14;7.13;;;3.97;;
35907;SDS011;22003;50.320;8.054;2022-08-25T04:33:42;8.18;;;4.40;;
35907;SDS011;22003;50.320;8.054;2022-08-25T04:36:09;11.10;;;4.20;;
35907;SDS011;22003;50.320;8.054;2022-08-25T04:38:36;4.53;;;3.60;;
35907;SDS011;22003;50.320;8.054;2022-08-25T04:41:03;5.22;;;4.20;;
35907;SDS011;22003;50.320;8.054;2022-08-25T04:43:30;9.13;;;4.47;;
35907;SDS011;22003;50.320;8.054;2022-08-25T04:45:56;5.57;;;4.03;;
35907;SDS011;22003;50.320;8.054;2022-08-25T04:51:15;5.07;;;4.00;;
35907;SDS011;22003;50.320;8.054;2022-08-25T04:53:42;7.45;;;4.55;;
35907;SDS011;22003;50.320;8.054;2022-08-25T04:56:09;7.28;;;5.07;;
35907;SDS011;22003;50.320;8.054;2022-08-25T04:58:37;7.82;;;4.88;;
35907;SDS011;22003;50.320;8.054;2022-08-25T05:01:04;9.18;;;6.15;;
35907;SDS011;22003;50.320;8.054;2022-08-25T05:03:31;5.93;;;4.93;;
35907;SDS011;22003;50.320;8.054;2022-08-25T05:05:57;8.70;;;4.82;;
35907;SDS011;22003;50.320;8.054;2022-08-25T05:08:22;7.70;;;4.25;;
35907;SDS011;22003;50.320;8.054;2022-08-25T05:10:48;7.78;;;4.35;;
35907;SDS011;22003;50.320;8.054;2022-08-25T05:13:14;6.07;;;3.92;;
35907;SDS011;22003;50.320;8.054;2022-08-25T05:15:39;12.32;;;4.93;;
35907;SDS011;22003;50.320;8.054;2022-08-25T05:18:17;7.80;;;4.07;;
35907;SDS011;22003;50.320;8.054;2022-08-25T05:20:44;8.50;;;4.20;;
35907;SDS011;22003;50.320;8.054;2022-08-25T05:23:09;5.90;;;4.00;;
35907;SDS011;22003;50.320;8.054;2022-08-25T05:25:35;10.35;;;4.25;;
35907;SDS011;22003;50.320;8.054;2022-08-25T05:28:01;14.00;;;5.28;;
35907;SDS011;22003;50.320;8.054;2022-08-25T05:30:27;18.85;;;4.82;;
35907;SDS011;22003;50.320;8.054;2022-08-25T05:32:52;14.90;;;4.95;;
35907;SDS011;22003;50.320;8.054;2022-08-25T05:35:18;10.25;;;4.10;;
35907;SDS011;22003;50.320;8.054;2022-08-25T05:37:44;12.15;;;4.60;;
35907;SDS011;22003;50.320;8.054;2022-08-25T05:40:09;11.75;;;4.28;;
35907;SDS011;22003;50.320;8.054;2022-08-25T05:42:35;9.85;;;4.40;;
35907;SDS011;22003;50.320;8.054;2022-08-25T05:45:01;13.43;;;4.20;;
35907;SDS011;22003;50.320;8.054;2022-08-25T05:47:26;7.47;;;4.15;;
35907;SDS011;22003;50.320;8.054;2022-08-25T05:49:51;16.52;;;4.95;;
35907;SDS011;22003;50.320;8.054;2022-08-25T05:52:17;11.18;;;4.28;;
35907;SDS011;22003;50.320;8.054;2022-08-25T05:54:42;11.88;;;5.28;;
35907;SDS011;22003;50.320;8.054;2022-08-25T05:57:07;14.30;;;4.90;;
35907;SDS011;22003;50.320;8.054;2022-08-25T05:59:33;13.65;;;4.50;;
35907;SDS011;22003;50.320;8.054;2022-08-25T06:01:59;14.23;;;5.63;;
35907;SDS011;22003;50.320;8.054;2022-08-25T06:04:43;15.63;;;4.68;;
35907;SDS011;22003;50.320;8.054;2022-08-25T06:07:08;21.23;;;5.45;;
35907;SDS011;22003;50.320;8.054;2022-08-25T06:09:36;22.38;;;5.72;;
35907;SDS011;22003;50.320;8.054;2022-08-25T06:12:03;24.25;;;5.32;;
35907;SDS011;22003;50.320;8.054;2022-08-25T06:14:28;19.67;;;4.70;;
35907;SDS011;22003;50.320;8.054;2022-08-25T06:16:53;18.98;;;5.10;;
35907;SDS011;22003;50.320;8.054;2022-08-25T06:19:19;15.85;;;4.55;;
35907;SDS011;22003;50.320;8.054;2022-08-25T06:21:45;20.70;;;6.65;;
35907;SDS011;22003;50.320;8.054;2022-08-25T06:24:10;14.48;;;4.85;;
35907;SDS011;22003;50.320;8.054;2022-08-25T06:26:36;14.48;;;5.20;;
35907;SDS011;22003;50.320;8.054;2022-08-25T06:29:01;10.68;;;4.13;;
35907;SDS011;22003;50.320;8.054;2022-08-25T06:31:28;15.25;;;4.22;;
35907;SDS011;22003;50.320;8.054;2022-08-25T06:33:53;21.25;;;5.57;;
35907;SDS011;22003;50.320;8.054;2022-08-25T06:36:18;14.10;;;5.03;;
35907;SDS011;22003;50.320;8.054;2022-08-25T06:38:44;11.40;;;4.18;;
35907;SDS011;22003;50.320;8.054;2022-08-25T06:41:11;16.00;;;3.80;;
35907;SDS011;22003;50.320;8.054;2022-08-25T06:43:37;15.52;;;4.53;;
35907;SDS011;22003;50.320;8.054;2022-08-25T06:46:07;22.00;;;4.70;;
35907;SDS011;22003;50.320;8.054;2022-08-25T06:48:43;14.27;;;4.18;;
35907;SDS011;22003;50.320;8.054;2022-08-25T06:51:09;16.73;;;4.10;;
35907;SDS011;22003;50.320;8.054;2022-08-25T06:53:38;13.50;;;4.43;;
35907;SDS011;22003;50.320;8.054;2022-08-25T06:56:04;14.15;;;4.07;;
35907;SDS011;22003;50.320;8.054;2022-08-25T06:58:29;13.65;;;3.90;;
35907;SDS011;22003;50.320;8.054;2022-08-25T07:00:55;9.98;;;3.72;;
35907;SDS011;22003;50.320;8.054;2022-08-25T07:03:21;8.32;;;3.65;;
35907;SDS011;22003;50.320;8.054;2022-08-25T07:05:53;11.88;;;3.72;;
35907;SDS011;22003;50.320;8.054;2022-08-25T07:08:20;7.18;;;3.55;;
35907;SDS011;22003;50.320;8.054;2022-08-25T07:10:46;7.78;;;3.60;;
35907;SDS011;22003;50.320;8.054;2022-08-25T07:13:12;7.60;;;3.38;;
35907;SDS011;22003;50.320;8.054;2022-08-25T07:15:38;6.63;;;3.50;;
35907;SDS011;22003;50.320;8.054;2022-08-25T07:18:04;6.82;;;3.97;;
35907;SDS011;22003;50.320;8.054;2022-08-25T07:20:30;7.15;;;3.38;;
35907;SDS011;22003;50.320;8.054;2022-08-25T07:22:56;10.23;;;4.00;;
35907;SDS011;22003;50.320;8.054;2022-08-25T07:25:21;7.80;;;3.90;;
35907;SDS011;22003;50.320;8.054;2022-08-25T07:27:47;5.97;;;3.90;;
35907;SDS011;22003;50.320;8.054;2022-08-25T07:30:12;5.65;;;4.40;;
35907;SDS011;22003;50.320;8.054;2022-08-25T07:32:38;6.80;;;4.03;;
35907;SDS011;22003;50.320;8.054;2022-08-25T07:35:03;6.40;;;4.55;;
35907;SDS011;22003;50.320;8.054;2022-08-25T07:37:51;7.40;;;4.13;;
35907;SDS011;22003;50.320;8.054;2022-08-25T07:40:31;9.98;;;4.70;;
35907;SDS011;22003;50.320;8.054;2022-08-25T07:43:00;6.38;;;4.85;;
35907;SDS011;22003;50.320;8.054;2022-08-25T07:45:32;6.63;;;4.20;;
35907;SDS011;22003;50.320;8.054;2022-08-25T07:48:04;6.25;;;4.57;;
35907;SDS011;22003;50.320;8.054;2022-08-25T07:50:32;8.13;;;4.65;;
35907;SDS011;22003;50.320;8.054;2022-08-25T07:52:58;9.00;;;4.63;;
35907;SDS011;22003;50.320;8.054;2022-08-25T07:55:24;7.18;;;4.88;;
35907;SDS011;22003;50.320;8.054;2022-08-25T07:57:51;9.07;;;4.85;;
35907;SDS011;22003;50.320;8.054;2022-08-25T08:00:17;11.77;;;5.57;;
35907;SDS011;22003;50.320;8.054;2022-08-25T08:02:43;6.50;;;5.05;;
35907;SDS011;22003;50.320;8.054;2022-08-25T08:05:09;7.88;;;4.72;;
35907;SDS011;22003;50.320;8.054;2022-08-25T08:07:35;9.75;;;5.70;;
35907;SDS011;22003;50.320;8.054;2022-08-25T08:10:01;10.88;;;5.55;;
35907;SDS011;22003;50.320;8.054;2022-08-25T08:12:27;6.68;;;4.45;;
35907;SDS011;22003;50.320;8.054;2022-08-25T08:14:53;10.00;;;5.45;;
35907;SDS011;22003;50.320;8.054;2022-08-25T08:17:19;6.95;;;4.55;;
35907;SDS011;22003;50.320;8.054;2022-08-25T08:19:45;7.13;;;5.07;;
35907;SDS011;22003;50.320;8.054;2022-08-25T08:22:11;13.40;;;5.35;;
35907;SDS011;22003;50.320;8.054;2022-08-25T08:24:39;5.55;;;4.95;;
35907;SDS011;22003;50.320;8.054;2022-08-25T08:27:06;8.17;;;4.40;;
35907;SDS011;22003;50.320;8.054;2022-08-25T08:29:33;8.10;;;5.00;;
35907;SDS011;22003;50.320;8.054;2022-08-25T08:31:59;6.40;;;4.90;;
35907;SDS011;22003;50.320;8.054;2022-08-25T08:34:25;10.35;;;5.10;;
35907;SDS011;22003;50.320;8.054;2022-08-25T08:36:50;9.45;;;4.70;;
35907;SDS011;22003;50.320;8.054;2022-08-25T08:39:16;7.93;;;4.72;;
35907;SDS011;22003;50.320;8.054;2022-08-25T08:41:53;8.25;;;4.32;;
35907;SDS011;22003;50.320;8.054;2022-08-25T08:55:38;8.55;;;5.18;;
35907;SDS011;22003;50.320;8.054;2022-08-25T08:58:10;8.02;;;5.60;;
35907;SDS011;22003;50.320;8.054;2022-08-25T09:00:45;7.88;;;5.18;;
35907;SDS011;22003;50.320;8.054;2022-08-25T09:03:16;8.38;;;5.43;;
35907;SDS011;22003;50.320;8.054;2022-08-25T09:05:47;7.78;;;5.15;;
35907;SDS011;22003;50.320;8.054;2022-08-25T09:08:16;8.40;;;5.43;;
35907;SDS011;22003;50.320;8.054;2022-08-25T09:10:56;11.13;;;5.20;;
35907;SDS011;22003;50.320;8.054;2022-08-25T09:16:50;8.32;;;5.43;;
35907;SDS011;22003;50.320;8.054;2022-08-25T09:30:09;10.70;;;5.53;;
35907;SDS011;22003;50.320;8.054;2022-08-25T09:32:44;8.02;;;5.10;;
35907;SDS011;22003;50.320;8.054;2022-08-25T09:35:19;7.65;;;5.22;;
35907;SDS011;22003;50.320;8.054;2022-08-25T09:40:29;9.32;;;5.63;;
35907;SDS011;22003;50.320;8.054;2022-08-25T09:42:58;6.28;;;4.93;;
35907;SDS011;22003;50.320;8.054;2022-08-25T09:45:42;9.05;;;5.72;;
35907;SDS011;22003;50.320;8.054;2022-08-25T09:48:21;8.35;;;5.32;;
35907;SDS011;22003;50.320;8.054;2022-08-25T09:50:49;5.97;;;4.82;;
35907;SDS011;22003;50.320;8.054;2022-08-25T09:53:17;10.60;;;5.63;;
35907;SDS011;22003;50.320;8.054;2022-08-25T09:55:43;8.43;;;4.88;;
35907;SDS011;22003;50.320;8.054;2022-08-25T09:58:14;8.65;;;4.70;;
35907;SDS011;22003;50.320;8.054;2022-08-25T10:00:42;8.25;;;5.45;;
35907;SDS011;22003;50.320;8.054;2022-08-25T10:08:24;10.73;;;5.07;;
35907;SDS011;22003;50.320;8.054;2022-08-25T10:10:55;7.00;;;4.82;;
35907;SDS011;22003;50.320;8.054;2022-08-25T10:13:31;7.60;;;5.38;;
35907;SDS011;22003;50.320;8.054;2022-08-25T10:18:58;6.68;;;4.43;;
35907;SDS011;22003;50.320;8.054;2022-08-25T10:23:51;8.33;;;5.40;;
35907;SDS011;22003;50.320;8.054;2022-08-25T10:29:46;6.68;;;4.85;;
35907;SDS011;22003;50.320;8.054;2022-08-25T10:32:29;9.43;;;4.78;;
35907;SDS011;22003;50.320;8.054;2022-08-25T10:34:58;7.47;;;5.00;;
35907;SDS011;22003;50.320;8.054;2022-08-25T10:45:31;7.28;;;4.80;;
35907;SDS011;22003;50.320;8.054;2022-08-25T10:48:15;7.43;;;4.78;;
35907;SDS011;22003;50.320;8.054;2022-08-25T10:51:02;9.30;;;4.95;;
35907;SDS011;22003;50.320;8.054;2022-08-25T10:53:46;6.75;;;5.13;;
35907;SDS011;22003;50.320;8.054;2022-08-25T10:56:26;5.43;;;4.68;;
35907;SDS011;22003;50.320;8.054;2022-08-25T11:07:42;7.05;;;4.65;;
35907;SDS011;22003;50.320;8.054;2022-08-25T11:10:19;5.88;;;4.85;;
35907;SDS011;22003;50.320;8.054;2022-08-25T11:13:00;8.95;;;5.18;;
35907;SDS011;22003;50.320;8.054;2022-08-25T11:15:35;5.68;;;4.97;;
35907;SDS011;22003;50.320;8.054;2022-08-25T11:18:10;6.00;;;4.50;;
35907;SDS011;22003;50.320;8.054;2022-08-25T11:20:42;5.47;;;4.45;;
35907;SDS011;22003;50.320;8.054;2022-08-25T11:23:14;7.65;;;4.60;;
35907;SDS011;22003;50.320;8.054;2022-08-25T11:25:53;8.25;;;5.18;;
35907;SDS011;22003;50.320;8.054;2022-08-25T11:28:29;6.07;;;4.70;;
35907;SDS011;22003;50.320;8.054;2022-08-25T11:31:00;8.77;;;4.53;;
35907;SDS011;22003;50.320;8.054;2022-08-25T11:33:28;4.88;;;3.83;;
35907;SDS011;22003;50.320;8.054;2022-08-25T11:35:59;6.93;;;3.83;;
35907;SDS011;22003;50.320;8.054;2022-08-25T11:38:39;7.45;;;4.63;;
35907;SDS011;22003;50.320;8.054;2022-08-25T11:41:26;5.65;;;4.32;;
35907;SDS011;22003;50.320;8.054;2022-08-25T11:55:05;4.80;;;3.28;;
35907;SDS011;22003;50.320;8.054;2022-08-25T11:57:35;7.93;;;4.13;;
35907;SDS011;22003;50.320;8.054;2022-08-25T12:00:06;5.80;;;3.70;;
35907;SDS011;22003;50.320;8.054;2022-08-25T12:05:11;4.97;;;4.05;;
35907;SDS011;22003;50.320;8.054;2022-08-25T12:07:57;7.20;;;4.18;;
35907;SDS011;22003;50.320;8.054;2022-08-25T12:16:05;5.78;;;4.45;;
35907;SDS011;22003;50.320;8.054;2022-08-25T12:23:28;6.53;;;4.57;;
35907;SDS011;22003;50.320;8.054;2022-08-25T12:25:56;5.63;;;4.15;;
35907;SDS011;22003;50.320;8.054;2022-08-25T12:28:29;6.35;;;4.57;;
35907;SDS011;22003;50.320;8.054;2022-08-25T12:30:57;5.80;;;4.70;;
35907;SDS011;22003;50.320;8.054;2022-08-25T12:33:40;5.03;;;4.28;;
35907;SDS011;22003;50.320;8.054;2022-08-25T12:36:24;10.15;;;4.57;;
35907;SDS011;22003;50.320;8.054;2022-08-25T12:38:52;5.72;;;4.20;;
35907;SDS011;22003;50.320;8.054;2022-08-25T12:41:27;7.85;;;4.72;;
35907;SDS011;22003;50.320;8.054;2022-08-25T12:44:08;6.07;;;4.47;;
35907;SDS011;22003;50.320;8.054;2022-08-25T12:46:44;8.73;;;4.30;;
35907;SDS011;22003;50.320;8.054;2022-08-25T12:49:11;8.80;;;4.15;;
35907;SDS011;22003;50.320;8.054;2022-08-25T13:00:24;5.97;;;4.47;;
35907;SDS011;22003;50.320;8.054;2022-08-25T13:06:07;4.68;;;4.18;;
35907;SDS011;22003;50.320;8.054;2022-08-25T13:14:41;6.30;;;4.88;;
35907;SDS011;22003;50.320;8.054;2022-08-25T13:17:10;5.57;;;4.07;;
35907;SDS011;22003;50.320;8.054;2022-08-25T13:19:36;5.75;;;4.38;;
35907;SDS011;22003;50.320;8.054;2022-08-25T13:22:03;7.97;;;5.07;;
35907;SDS011;22003;50.320;8.054;2022-08-25T13:24:39;8.00;;;4.20;;
35907;SDS011;22003;50.320;8.054;2022-08-25T13:27:08;6.97;;;4.57;;
35907;SDS011;22003;50.320;8.054;2022-08-25T13:30:15;7.40;;;4.50;;
35907;SDS011;22003;50.320;8.054;2022-08-25T13:32:43;12.95;;;5.28;;
35907;SDS011;22003;50.320;8.054;2022-08-25T13:37:39;7.80;;;4.50;;
35907;SDS011;22003;50.320;8.054;2022-08-25T13:42:41;8.48;;;4.20;;
35907;SDS011;22003;50.320;8.054;2022-08-25T13:45:11;5.65;;;4.30;;
35907;SDS011;22003;50.320;8.054;2022-08-25T13:47:41;6.45;;;4.60;;
35907;SDS011;22003;50.320;8.054;2022-08-25T13:52:54;5.75;;;4.00;;
35907;SDS011;22003;50.320;8.054;2022-08-25T13:55:27;5.38;;;4.32;;
35907;SDS011;22003;50.320;8.054;2022-08-25T13:58:11;5.68;;;4.88;;
35907;SDS011;22003;50.320;8.054;2022-08-25T14:00:40;8.18;;;4.63;;
35907;SDS011;22003;50.320;8.054;2022-08-25T14:03:26;4.97;;;3.92;;
35907;SDS011;22003;50.320;8.054;2022-08-25T14:08:38;7.27;;;4.30;;
35907;SDS011;22003;50.320;8.054;2022-08-25T14:11:28;6.93;;;4.20;;
35907;SDS011;22003;50.320;8.054;2022-08-25T14:14:02;5.65;;;4.28;;
35907;SDS011;22003;50.320;8.054;2022-08-25T14:16:44;4.95;;;4.30;;
35907;SDS011;22003;50.320;8.054;2022-08-25T14:19:16;6.15;;;4.15;;
35907;SDS011;22003;50.320;8.054;2022-08-25T14:21:44;4.75;;;3.78;;
35907;SDS011;22003;50.320;8.054;2022-08-25T14:24:12;10.68;;;4.88;;
35907;SDS011;22003;50.320;8.054;2022-08-25T14:26:40;5.43;;;3.78;;
35907;SDS011;22003;50.320;8.054;2022-08-25T14:29:05;7.20;;;4.87;;
35907;SDS011;22003;50.320;8.054;2022-08-25T14:31:32;8.75;;;4.30;;
35907;SDS011;22003;50.320;8.054;2022-08-25T14:34:03;8.02;;;5.15;;
35907;SDS011;22003;50.320;8.054;2022-08-25T14:36:32;5.80;;;4.57;;
35907;SDS011;22003;50.320;8.054;2022-08-25T14:38:59;5.82;;;4.88;;
35907;SDS011;22003;50.320;8.054;2022-08-25T14:41:29;7.22;;;4.18;;
35907;SDS011;22003;50.320;8.054;2022-08-25T14:43:54;5.30;;;4.77;;
35907;SDS011;22003;50.320;8.054;2022-08-25T14:46:21;9.53;;;4.47;;
35907;SDS011;22003;50.320;8.054;2022-08-25T14:48:53;5.90;;;4.57;;
35907;SDS011;22003;50.320;8.054;2022-08-25T14:51:24;7.15;;;4.68;;
35907;SDS011;22003;50.320;8.054;2022-08-25T14:53:54;4.40;;;4.00;;
35907;SDS011;22003;50.320;8.054;2022-08-25T14:56:23;7.05;;;4.60;;
35907;SDS011;22003;50.320;8.054;2022-08-25T14:58:48;5.93;;;4.60;;
35907;SDS011;22003;50.320;8.054;2022-08-25T15:01:14;8.27;;;4.67;;
35907;SDS011;22003;50.320;8.054;2022-08-25T15:03:41;5.47;;;4.28;;
35907;SDS011;22003;50.320;8.054;2022-08-25T15:06:11;7.40;;;5.32;;
35907;SDS011;22003;50.320;8.054;2022-08-25T15:08:39;9.02;;;4.97;;
35907;SDS011;22003;50.320;8.054;2022-08-25T15:11:24;9.20;;;4.70;;
35907;SDS011;22003;50.320;8.054;2022-08-25T15:13:50;6.85;;;4.40;;
35907;SDS011;22003;50.320;8.054;2022-08-25T15:19:08;7.38;;;5.30;;
35907;SDS011;22003;50.320;8.054;2022-08-25T15:21:35;8.48;;;5.40;;
35907;SDS011;22003;50.320;8.054;2022-08-25T15:24:02;6.90;;;4.75;;
35907;SDS011;22003;50.320;8.054;2022-08-25T15:26:33;7.28;;;4.18;;
35907;SDS011;22003;50.320;8.054;2022-08-25T15:29:04;11.30;;;4.78;;
35907;SDS011;22003;50.320;8.054;2022-08-25T15:31:29;8.27;;;4.57;;
35907;SDS011;22003;50.320;8.054;2022-08-25T15:33:55;5.67;;;4.70;;
35907;SDS011;22003;50.320;8.054;2022-08-25T15:36:21;8.50;;;4.80;;
35907;SDS011;22003;50.320;8.054;2022-08-25T15:38:48;6.03;;;4.75;;
35907;SDS011;22003;50.320;8.054;2022-08-25T15:41:14;5.70;;;4.30;;
35907;SDS011;22003;50.320;8.054;2022-08-25T15:43:39;6.43;;;4.40;;
35907;SDS011;22003;50.320;8.054;2022-08-25T15:46:06;7.03;;;4.53;;
35907;SDS011;22003;50.320;8.054;2022-08-25T15:48:33;6.75;;;4.75;;
35907;SDS011;22003;50.320;8.054;2022-08-25T15:50:59;8.47;;;4.50;;
35907;SDS011;22003;50.320;8.054;2022-08-25T15:53:25;7.38;;;4.70;;
35907;SDS011;22003;50.320;8.054;2022-08-25T15:55:52;6.43;;;4.50;;
35907;SDS011;22003;50.320;8.054;2022-08-25T15:58:18;5.05;;;4.55;;
35907;SDS011;22003;50.320;8.054;2022-08-25T16:00:44;5.75;;;4.15;;
35907;SDS011;22003;50.320;8.054;2022-08-25T16:03:11;5.22;;;4.18;;
35907;SDS011;22003;50.320;8.054;2022-08-25T16:05:38;6.68;;;4.50;;
35907;SDS011;22003;50.320;8.054;2022-08-25T16:08:05;4.93;;;4.43;;
35907;SDS011;22003;50.320;8.054;2022-08-25T16:10:32;6.13;;;4.75;;
35907;SDS011;22003;50.320;8.054;2022-08-25T16:12:58;4.57;;;3.92;;
35907;SDS011;22003;50.320;8.054;2022-08-25T16:15:24;7.10;;;4.90;;
35907;SDS011;22003;50.320;8.054;2022-08-25T16:17:49;6.03;;;4.30;;
35907;SDS011;22003;50.320;8.054;2022-08-25T16:20:15;5.55;;;3.78;;
35907;SDS011;22003;50.320;8.054;2022-08-25T16:22:41;7.60;;;3.80;;
35907;SDS011;22003;50.320;8.054;2022-08-25T16:25:07;13.50;;;4.63;;
35907;SDS011;22003;50.320;8.054;2022-08-25T16:27:34;6.50;;;4.28;;
35907;SDS011;22003;50.320;8.054;2022-08-25T16:30:00;7.00;;;4.78;;
35907;SDS011;22003;50.320;8.054;2022-08-25T16:32:26;4.20;;;3.75;;
35907;SDS011;22003;50.320;8.054;2022-08-25T16:34:51;5.03;;;3.95;;
35907;SDS011;22003;50.320;8.054;2022-08-25T16:37:16;5.68;;;4.22;;
35907;SDS011;22003;50.320;8.054;2022-08-25T16:39:41;4.28;;;3.88;;
35907;SDS011;22003;50.320;8.054;2022-08-25T16:42:09;5.63;;;3.67;;
35907;SDS011;22003;50.320;8.054;2022-08-25T16:44:34;7.45;;;4.82;;
35907;SDS011;22003;50.320;8.054;2022-08-25T16:47:01;5.10;;;4.37;;
35907;SDS011;22003;50.320;8.054;2022-08-25T16:49:26;8.85;;;4.70;;
35907;SDS011;22003;50.320;8.054;2022-08-25T16:51:51;5.20;;;3.45;;
35907;SDS011;22003;50.320;8.054;2022-08-25T16:54:17;5.25;;;4.07;;
35907;SDS011;22003;50.320;8.054;2022-08-25T16:57:01;5.55;;;3.95;;
35907;SDS011;22003;50.320;8.054;2022-08-25T16:59:27;17.58;;;5.28;;
35907;SDS011;22003;50.320;8.054;2022-08-25T17:01:52;4.68;;;3.78;;
35907;SDS011;22003;50.320;8.054;2022-08-25T17:04:18;6.13;;;4.03;;
35907;SDS011;22003;50.320;8.054;2022-08-25T17:06:44;9.20;;;4.68;;
35907;SDS011;22003;50.320;8.054;2022-08-25T17:09:10;6.93;;;4.28;;
35907;SDS011;22003;50.320;8.054;2022-08-25T17:11:42;9.65;;;4.85;;
35907;SDS011;22003;50.320;8.054;2022-08-25T17:14:10;7.90;;;4.35;;
35907;SDS011;22003;50.320;8.054;2022-08-25T17:16:37;6.28;;;3.65;;
35907;SDS011;22003;50.320;8.054;2022-08-25T17:19:03;6.17;;;3.70;;
35907;SDS011;22003;50.320;8.054;2022-08-25T17:21:31;6.35;;;3.60;;
35907;SDS011;22003;50.320;8.054;2022-08-25T17:23:57;7.38;;;4.90;;
35907;SDS011;22003;50.320;8.054;2022-08-25T17:26:24;7.67;;;3.73;;
35907;SDS011;22003;50.320;8.054;2022-08-25T17:28:51;6.82;;;3.78;;
35907;SDS011;22003;50.320;8.054;2022-08-25T17:31:17;6.53;;;4.00;;
35907;SDS011;22003;50.320;8.054;2022-08-25T17:33:42;6.80;;;4.22;;
35907;SDS011;22003;50.320;8.054;2022-08-25T17:36:08;6.30;;;3.97;;
35907;SDS011;22003;50.320;8.054;2022-08-25T17:38:34;7.57;;;4.10;;
35907;SDS011;22003;50.320;8.054;2022-08-25T17:41:01;4.38;;;3.75;;
35907;SDS011;22003;50.320;8.054;2022-08-25T17:43:31;5.90;;;4.03;;
35907;SDS011;22003;50.320;8.054;2022-08-25T17:45:57;6.90;;;3.65;;
35907;SDS011;22003;50.320;8.054;2022-08-25T17:48:23;6.65;;;3.92;;
35907;SDS011;22003;50.320;8.054;2022-08-25T17:50:50;4.38;;;3.75;;
35907;SDS011;22003;50.320;8.054;2022-08-25T17:53:15;7.90;;;4.10;;
35907;SDS011;22003;50.320;8.054;2022-08-25T17:55:42;6.10;;;4.13;;
35907;SDS011;22003;50.320;8.054;2022-08-25T17:58:09;6.68;;;4.60;;
35907;SDS011;22003;50.320;8.054;2022-08-25T18:00:36;5.72;;;4.03;;
35907;SDS011;22003;50.320;8.054;2022-08-25T18:03:02;6.40;;;4.28;;
35907;SDS011;22003;50.320;8.054;2022-08-25T18:05:30;9.63;;;4.57;;
35907;SDS011;22003;50.320;8.054;2022-08-25T18:07:56;5.82;;;4.32;;
35907;SDS011;22003;50.320;8.054;2022-08-25T18:10:21;5.93;;;4.55;;
35907;SDS011;22003;50.320;8.054;2022-08-25T18:12:47;9.13;;;5.32;;
35907;SDS011;22003;50.320;8.054;2022-08-25T18:15:13;12.10;;;4.50;;
35907;SDS011;22003;50.320;8.054;2022-08-25T18:17:39;8.20;;;4.50;;
35907;SDS011;22003;50.320;8.054;2022-08-25T18:20:05;12.52;;;4.70;;
35907;SDS011;22003;50.320;8.054;2022-08-25T18:22:33;6.50;;;4.20;;
35907;SDS011;22003;50.320;8.054;2022-08-25T18:25:00;10.05;;;5.95;;
35907;SDS011;22003;50.320;8.054;2022-08-25T18:27:27;10.70;;;5.47;;
35907;SDS011;22003;50.320;8.054;2022-08-25T18:29:53;12.68;;;7.68;;
35907;SDS011;22003;50.320;8.054;2022-08-25T18:32:19;9.10;;;6.50;;
35907;SDS011;22003;50.320;8.054;2022-08-25T18:34:45;8.50;;;5.60;;
35907;SDS011;22003;50.320;8.054;2022-08-25T18:37:10;7.72;;;4.65;;
35907;SDS011;22003;50.320;8.054;2022-08-25T18:39:54;7.40;;;4.32;;
35907;SDS011;22003;50.320;8.054;2022-08-25T18:42:38;7.25;;;4.72;;
35907;SDS011;22003;50.320;8.054;2022-08-25T18:45:04;6.43;;;4.60;;
35907;SDS011;22003;50.320;8.054;2022-08-25T18:47:30;10.38;;;4.53;;
35907;SDS011;22003;50.320;8.054;2022-08-25T18:49:57;5.97;;;4.28;;
35907;SDS011;22003;50.320;8.054;2022-08-25T18:52:22;6.18;;;3.90;;
35907;SDS011;22003;50.320;8.054;2022-08-25T18:54:48;8.57;;;4.63;;
35907;SDS011;22003;50.320;8.054;2022-08-25T18:57:14;8.18;;;4.82;;
35907;SDS011;22003;50.320;8.054;2022-08-25T18:59:39;7.05;;;4.72;;
35907;SDS011;22003;50.320;8.054;2022-08-25T19:02:05;8.85;;;5.30;;
35907;SDS011;22003;50.320;8.054;2022-08-25T19:04:31;7.65;;;4.60;;
35907;SDS011;22003;50.320;8.054;2022-08-25T19:06:56;11.15;;;5.03;;
35907;SDS011;22003;50.320;8.054;2022-08-25T19:09:22;7.90;;;4.43;;
35907;SDS011;22003;50.320;8.054;2022-08-25T19:11:47;10.07;;;4.63;;
35907;SDS011;22003;50.320;8.054;2022-08-25T19:14:12;13.05;;;4.50;;
35907;SDS011;22003;50.320;8.054;2022-08-25T19:16:38;14.75;;;5.30;;
35907;SDS011;22003;50.320;8.054;2022-08-25T19:19:06;18.95;;;5.13;;
35907;SDS011;22003;50.320;8.054;2022-08-25T19:21:34;12.65;;;5.07;;
35907;SDS011;22003;50.320;8.054;2022-08-25T19:23:59;23.60;;;5.53;;
35907;SDS011;22003;50.320;8.054;2022-08-25T19:26:25;17.35;;;5.03;;
35907;SDS011;22003;50.320;8.054;2022-08-25T19:28:51;10.88;;;4.72;;
35907;SDS011;22003;50.320;8.054;2022-08-25T19:31:21;15.18;;;4.93;;
35907;SDS011;22003;50.320;8.054;2022-08-25T19:33:48;11.60;;;4.20;;
35907;SDS011;22003;50.320;8.054;2022-08-25T19:36:16;11.10;;;5.38;;
35907;SDS011;22003;50.320;8.054;2022-08-25T19:38:43;7.55;;;4.53;;
35907;SDS011;22003;50.320;8.054;2022-08-25T19:41:08;6.82;;;4.68;;
35907;SDS011;22003;50.320;8.054;2022-08-25T19:43:34;10.90;;;4.93;;
35907;SDS011;22003;50.320;8.054;2022-08-25T19:45:59;8.40;;;5.35;;
35907;SDS011;22003;50.320;8.054;2022-08-25T19:48:25;7.10;;;4.15;;
35907;SDS011;22003;50.320;8.054;2022-08-25T19:50:50;7.45;;;4.25;;
35907;SDS011;22003;50.320;8.054;2022-08-25T19:53:16;7.25;;;4.53;;
35907;SDS011;22003;50.320;8.054;2022-08-25T19:55:41;8.38;;;4.55;;
35907;SDS011;22003;50.320;8.054;2022-08-25T19:58:07;7.22;;;4.93;;
35907;SDS011;22003;50.320;8.054;2022-08-25T20:00:33;6.50;;;4.25;;
35907;SDS011;22003;50.320;8.054;2022-08-25T20:03:00;11.57;;;4.88;;
35907;SDS011;22003;50.320;8.054;2022-08-25T20:05:26;6.15;;;3.97;;
35907;SDS011;22003;50.320;8.054;2022-08-25T20:07:53;6.32;;;4.38;;
35907;SDS011;22003;50.320;8.054;2022-08-25T20:10:20;7.72;;;4.68;;
35907;SDS011;22003;50.320;8.054;2022-08-25T20:12:47;6.85;;;3.90;;
35907;SDS011;22003;50.320;8.054;2022-08-25T20:15:13;5.93;;;3.92;;
35907;SDS011;22003;50.320;8.054;2022-08-25T20:17:39;6.30;;;4.22;;
35907;SDS011;22003;50.320;8.054;2022-08-25T20:20:05;5.50;;;3.95;;
35907;SDS011;22003;50.320;8.054;2022-08-25T20:22:33;7.50;;;4.80;;
35907;SDS011;22003;50.320;8.054;2022-08-25T20:25:05;11.32;;;4.95;;
35907;SDS011;22003;50.320;8.054;2022-08-25T20:27:35;12.18;;;5.47;;
35907;SDS011;22003;50.320;8.054;2022-08-25T20:30:04;6.82;;;4.53;;
35907;SDS011;22003;50.320;8.054;2022-08-25T20:32:33;7.32;;;4.55;;
35907;SDS011;22003;50.320;8.054;2022-08-25T20:35:01;6.53;;;4.53;;
35907;SDS011;22003;50.320;8.054;2022-08-25T20:37:29;6.90;;;5.32;;
35907;SDS011;22003;50.320;8.054;2022-08-25T20:39:55;6.57;;;4.50;;
35907;SDS011;22003;50.320;8.054;2022-08-25T20:42:20;6.97;;;4.45;;
35907;SDS011;22003;50.320;8.054;2022-08-25T20:44:45;6.20;;;4.45;;
35907;SDS011;22003;50.320;8.054;2022-08-25T20:47:11;7.15;;;4.20;;
35907;SDS011;22003;50.320;8.054;2022-08-25T20:49:37;7.65;;;4.90;;
35907;SDS011;22003;50.320;8.054;2022-08-25T20:52:03;5.88;;;4.85;;